Time;durP1;ratioP1;P1;durP2;ratioP2;P2;SDS_P1;SDS_P2;PMS_P1;PMS_P2;Temp;Humidity;BMP_temperature;BMP_pressure;BME280_temperature;BME280_humidity;BME280_pressure;Samples;Min_cycle;Max_cycle;Signal;HPM_P1;HPM_P2
2021/11/06 00:00:24;;;;;;;252.52;25.90;;;;;;;5.35;99.87;99939.19;4956716;28;103079;-62
2021/11/06 00:02:53;;;;;;;350.95;27.00;;;;;;;5.62;98.41;99938.28;4954852;28;102769;-62
2021/11/06 00:05:21;;;;;;;153.13;18.27;;;;;;;6.02;97.84;99943.94;4958284;28;103231;-62
2021/11/06 00:07:49;;;;;;;208.68;22.60;;;;;;;5.82;96.71;99941.09;4953958;28;103218;-61
2021/11/06 00:10:18;;;;;;;122.23;19.87;;;;;;;5.63;97.14;99940.00;4956256;28;102865;-62
2021/11/06 00:12:47;;;;;;;141.10;22.00;;;;;;;5.40;98.98;99942.50;4956502;28;103757;-62
2021/11/06 00:15:17;;;;;;;54.87;16.37;;;;;;;5.82;98.55;99941.09;4936207;28;104034;-61
2021/11/06 00:17:45;;;;;;;146.55;20.23;;;;;;;5.40;97.11;99943.38;4956937;28;103419;-61
2021/11/06 00:20:15;;;;;;;250.35;25.38;;;;;;;5.16;96.20;99950.25;4957607;28;102681;-61
2021/11/06 00:22:44;;;;;;;331.20;29.63;;;;;;;4.88;97.16;99952.00;4957650;28;102867;-61
2021/11/06 00:25:13;;;;;;;281.63;30.20;;;;;;;4.73;99.18;99954.19;4952426;28;103291;-61
2021/11/06 00:27:42;;;;;;;152.02;22.15;;;;;;;4.93;99.24;99951.84;4956920;28;102955;-62
2021/11/06 00:30:11;;;;;;;23.47;14.93;;;;;;;4.99;99.93;99947.28;4956981;28;102844;-62
2021/11/06 00:32:41;;;;;;;225.95;24.52;;;;;;;5.01;97.08;99940.22;4960859;28;102600;-66
2021/11/06 00:35:11;;;;;;;297.42;27.55;;;;;;;4.67;98.62;99943.00;4958811;28;103348;-61
2021/11/06 00:37:40;;;;;;;134.97;19.67;;;;;;;4.66;100.00;99948.25;4960359;28;103076;-61
2021/11/06 00:40:13;;;;;;;131.55;20.63;;;;;;;5.07;98.52;99940.03;4940993;28;102715;-62
2021/11/06 00:42:42;;;;;;;261.27;25.75;;;;;;;5.02;96.81;99941.97;4959139;28;102790;-62
2021/11/06 00:45:10;;;;;;;170.70;23.17;;;;;;;4.94;96.60;99941.31;4958473;28;103409;-61
2021/11/06 00:47:43;;;;;;;91.20;20.20;;;;;;;5.09;96.44;99943.47;4941419;28;103260;-61
2021/11/06 00:50:15;;;;;;;153.43;23.03;;;;;;;5.00;95.33;99948.97;4957708;28;102787;-61
2021/11/06 00:52:45;;;;;;;47.95;15.73;;;;;;;5.46;96.69;99950.19;4960483;28;102840;-61
2021/11/06 00:55:13;;;;;;;114.50;20.23;;;;;;;5.02;95.57;99949.81;4959046;28;103287;-61
2021/11/06 00:57:42;;;;;;;55.27;16.63;;;;;;;5.24;95.76;99945.63;4959559;28;103194;-61
2021/11/06 01:00:13;;;;;;;85.30;19.33;;;;;;;5.24;93.63;99948.25;4958449;28;102615;-62
2021/11/06 01:02:43;;;;;;;373.75;32.20;;;;;;;4.33;96.20;99955.28;4958908;28;102822;-61
2021/11/06 01:05:13;;;;;;;72.75;18.25;;;;;;;5.09;96.65;99953.94;4957775;28;103327;-61
2021/11/06 01:07:42;;;;;;;38.13;15.02;;;;;;;5.50;94.75;99954.44;4959901;28;103156;-61
2021/11/06 01:10:12;;;;;;;82.60;16.52;;;;;;;5.28;93.32;99955.09;4941173;28;102612;-62
2021/11/06 01:12:40;;;;;;;80.03;18.77;;;;;;;5.26;92.92;99950.81;4960497;28;103051;-63
2021/11/06 01:15:12;;;;;;;13.02;11.82;;;;;;;5.76;93.76;99957.03;4940787;28;103287;-63
2021/11/06 01:17:42;;;;;;;11.25;10.15;;;;;;;6.07;92.60;99952.50;4959509;28;103192;-62
2021/11/06 01:20:10;;;;;;;24.50;13.33;;;;;;;5.99;91.00;99951.06;4939432;28;102990;-62
2021/11/06 01:22:41;;;;;;;43.95;15.82;;;;;;;5.72;89.71;99951.06;4959680;28;103059;-62
2021/11/06 01:25:13;;;;;;;17.38;13.45;;;;;;;5.87;90.89;99954.94;4958407;28;103801;-62
2021/11/06 01:27:41;;;;;;;17.25;13.05;;;;;;;5.75;91.02;99955.34;4958357;28;103285;-62
2021/11/06 01:30:10;;;;;;;44.78;15.10;;;;;;;5.57;90.31;99963.81;4941146;28;102760;-62
2021/11/06 01:32:39;;;;;;;135.13;22.40;;;;;;;4.95;92.28;99963.97;4955368;28;102684;-62
2021/11/06 01:35:10;;;;;;;179.25;24.67;;;;;;;4.47;95.51;99968.88;4957933;28;104335;-62
2021/11/06 01:37:38;;;;;;;76.50;20.15;;;;;;;4.67;97.65;99957.84;4959284;28;103201;-62
2021/11/06 01:40:10;;;;;;;61.90;16.73;;;;;;;5.09;95.25;99953.94;4958257;28;103223;-62
2021/11/06 01:42:38;;;;;;;73.10;18.10;;;;;;;4.83;95.52;99948.63;4958223;28;103788;-62
2021/11/06 01:45:13;;;;;;;56.10;18.20;;;;;;;4.90;96.00;99952.78;4957839;28;104071;-62
2021/11/06 01:47:41;;;;;;;76.78;18.48;;;;;;;5.25;94.10;99942.09;4955632;28;103774;-62
2021/11/06 01:50:12;;;;;;;145.30;22.65;;;;;;;4.85;94.85;99944.22;4958499;28;102789;-62
2021/11/06 01:52:40;;;;;;;12.38;11.35;;;;;;;5.30;98.14;99947.19;4958856;28;102706;-62
2021/11/06 01:55:10;;;;;;;45.97;15.25;;;;;;;5.59;95.65;99944.47;4958539;28;102999;-62
2021/11/06 01:57:38;;;;;;;24.13;13.10;;;;;;;5.68;94.47;99940.72;4938212;28;103216;-62
2021/11/06 02:00:09;;;;;;;36.13;12.68;;;;;;;5.85;94.56;99941.03;4958030;28;102781;-62
2021/11/06 02:02:42;;;;;;;21.30;13.27;;;;;;;5.96;94.61;99935.41;4952641;28;103140;-62
2021/11/06 02:05:13;;;;;;;18.47;11.43;;;;;;;6.27;94.29;99929.06;4957237;28;103267;-62
2021/11/06 02:07:41;;;;;;;103.80;19.70;;;;;;;6.20;94.27;99931.97;4958324;28;103216;-65
2021/11/06 02:10:11;;;;;;;12.30;11.23;;;;;;;6.50;94.05;99925.63;4957387;28;102764;-62
2021/11/06 02:12:40;;;;;;;21.73;14.50;;;;;;;6.49;93.39;99928.28;4939865;28;103050;-62
2021/11/06 02:15:10;;;;;;;17.83;13.65;;;;;;;6.66;92.93;99920.63;4940175;28;102669;-62
2021/11/06 02:17:38;;;;;;;145.87;21.87;;;;;;;6.01;92.61;99926.47;4954904;28;103334;-62
2021/11/06 02:20:10;;;;;;;15.45;14.10;;;;;;;5.82;97.16;99928.00;4957073;28;102719;-62
2021/11/06 02:22:40;;;;;;;41.85;17.40;;;;;;;6.34;95.69;99930.53;4955127;28;103887;-62
2021/11/06 02:25:10;;;;;;;333.55;27.42;;;;;;;6.18;92.91;99934.63;4939943;28;103191;-61
2021/11/06 02:27:38;;;;;;;131.73;18.77;;;;;;;6.13;94.99;99931.31;4955224;28;103757;-64
2021/11/06 02:30:08;;;;;;;79.03;16.63;;;;;;;6.45;94.67;99926.69;4957546;28;102887;-61
2021/11/06 02:32:36;;;;;;;49.03;17.20;;;;;;;6.66;94.57;99936.41;4957830;28;102620;-62
2021/11/06 02:35:05;;;;;;;16.40;14.95;;;;;;;6.84;94.00;99936.59;4957534;28;103711;-61
2021/11/06 02:37:33;;;;;;;15.97;14.33;;;;;;;6.95;93.69;99928.28;4956718;28;103365;-62
2021/11/06 02:40:03;;;;;;;15.75;14.10;;;;;;;7.07;93.40;99933.09;4958475;28;102952;-62
2021/11/06 02:42:31;;;;;;;15.75;14.27;;;;;;;7.16;92.77;99926.63;4956771;28;103593;-62
2021/11/06 02:45:02;;;;;;;21.85;15.32;;;;;;;7.13;92.02;99921.47;4937505;28;103234;-62
2021/11/06 02:47:31;;;;;;;37.43;16.07;;;;;;;7.16;92.19;99918.72;4956698;28;103284;-62
2021/11/06 02:50:00;;;;;;;120.93;21.55;;;;;;;7.06;90.63;99922.63;4957836;28;103305;-62
2021/11/06 02:52:28;;;;;;;188.73;21.58;;;;;;;6.97;91.05;99922.06;4958640;28;103020;-63
2021/11/06 02:54:56;;;;;;;17.98;16.08;;;;;;;7.12;92.53;99933.75;4956879;28;104069;-63
2021/11/06 02:57:27;;;;;;;235.13;27.10;;;;;;;6.76;91.35;99937.78;4958124;28;102969;-63
2021/11/06 02:59:55;;;;;;;780.30;48.50;;;;;;;6.08;96.28;99933.25;4957062;28;102699;-65
2021/11/06 03:02:23;;;;;;;127.45;24.48;;;;;;;6.61;96.50;99931.31;4935174;28;102723;-63
2021/11/06 03:04:52;;;;;;;36.88;19.80;;;;;;;6.92;95.42;99931.03;4957514;28;103922;-63
2021/11/06 03:07:20;;;;;;;40.55;22.35;;;;;;;6.95;95.31;99928.28;4936768;28;103081;-62
2021/11/06 03:09:48;;;;;;;57.30;21.90;;;;;;;7.00;94.85;99940.34;4956291;28;102662;-62
2021/11/06 03:12:17;;;;;;;52.00;21.48;;;;;;;6.95;94.50;99944.06;4956860;28;102729;-62
2021/11/06 03:14:46;;;;;;;40.83;20.98;;;;;;;7.18;94.34;99946.66;4956491;28;103234;-62
2021/11/06 03:17:14;;;;;;;17.55;15.95;;;;;;;7.36;93.68;99945.06;4957557;28;103391;-62
2021/11/06 03:19:43;;;;;;;64.43;21.77;;;;;;;7.28;92.39;99944.50;4956713;28;102843;-63
2021/11/06 03:22:14;;;;;;;39.50;20.98;;;;;;;7.22;92.74;99948.25;4955730;28;102724;-62
2021/11/06 03:24:42;;;;;;;61.40;21.88;;;;;;;7.31;92.28;99947.88;4954519;28;104014;-62
2021/11/06 03:27:10;;;;;;;145.00;24.77;;;;;;;6.99;92.32;99946.50;4957259;28;103142;-62
2021/11/06 03:29:38;;;;;;;125.07;23.88;;;;;;;6.68;93.36;99948.56;4956706;28;102646;-62
2021/11/06 03:32:09;;;;;;;302.67;32.10;;;;;;;5.68;98.16;99946.81;4939438;28;103900;-62
2021/11/06 03:34:38;;;;;;;169.70;26.55;;;;;;;6.16;98.09;99953.97;4955667;28;103279;-62
2021/11/06 03:37:06;;;;;;;22.13;18.67;;;;;;;6.61;97.24;99954.09;4954889;28;103170;-62
2021/11/06 03:39:35;;;;;;;52.53;19.67;;;;;;;6.80;96.01;99955.13;4956576;28;102609;-62
2021/11/06 03:42:04;;;;;;;64.97;22.45;;;;;;;6.51;95.78;99958.84;4957468;28;102597;-62
2021/11/06 03:44:33;;;;;;;61.38;21.50;;;;;;;6.60;95.68;99957.63;4956866;28;103505;-62
2021/11/06 03:47:01;;;;;;;42.13;19.50;;;;;;;6.55;94.84;99959.56;4953699;28;103236;-62
2021/11/06 03:49:31;;;;;;;64.07;21.03;;;;;;;6.51;95.63;99957.97;4936486;28;103094;-66
2021/11/06 03:52:00;;;;;;;26.52;17.27;;;;;;;6.64;95.10;99959.25;4956057;28;102780;-62
2021/11/06 03:54:28;;;;;;;14.82;13.43;;;;;;;7.01;93.38;99959.59;4956757;28;104421;-62
2021/11/06 03:56:56;;;;;;;16.45;14.82;;;;;;;7.12;92.51;99956.53;4957208;28;103212;-62
2021/11/06 03:59:24;;;;;;;66.60;19.55;;;;;;;6.70;92.42;99954.63;4956934;28;102705;-62
2021/11/06 04:01:57;;;;;;;42.58;18.25;;;;;;;6.38;95.22;99968.03;4956269;28;103867;-61
2021/11/06 04:04:25;;;;;;;37.53;17.30;;;;;;;6.63;93.42;99960.13;4958632;28;103267;-61
2021/11/06 04:06:55;;;;;;;114.70;21.30;;;;;;;6.37;93.99;99967.19;4945597;28;103465;-62
2021/11/06 04:09:23;;;;;;;42.77;16.70;;;;;;;6.70;93.86;99966.91;4962946;28;102565;-62
2021/11/06 04:11:51;;;;;;;17.05;14.93;;;;;;;6.66;93.63;99967.91;4945159;28;104138;-62
2021/11/06 04:14:19;;;;;;;69.93;18.38;;;;;;;6.67;93.49;99972.25;4960646;28;103233;-62
2021/11/06 04:16:47;;;;;;;43.00;16.85;;;;;;;6.60;93.42;99974.25;4945368;28;103261;-61
2021/11/06 04:19:15;;;;;;;31.40;16.52;;;;;;;6.57;93.47;99976.97;4946086;28;102737;-61
2021/11/06 04:21:43;;;;;;;17.43;14.93;;;;;;;6.86;92.86;99975.91;4960633;28;102959;-61
2021/11/06 04:24:12;;;;;;;19.92;15.43;;;;;;;6.88;91.83;99980.19;4943437;28;103421;-61
2021/11/06 04:26:40;;;;;;;77.88;19.77;;;;;;;6.36;93.26;99976.00;4961513;28;103225;-61
2021/11/06 04:29:09;;;;;;;15.85;14.32;;;;;;;6.85;92.98;99968.94;4963900;28;102944;-61
2021/11/06 04:31:37;;;;;;;24.48;17.23;;;;;;;6.96;91.93;99972.06;4962987;28;102673;-61
2021/11/06 04:34:05;;;;;;;17.35;15.18;;;;;;;6.75;92.57;99968.44;4960193;28;103944;-61
2021/11/06 04:36:33;;;;;;;22.73;17.90;;;;;;;6.76;92.10;99974.56;4961085;28;103265;-61
2021/11/06 04:39:01;;;;;;;41.35;19.15;;;;;;;6.29;93.70;99971.84;4961667;28;102678;-61
2021/11/06 04:41:31;;;;;;;36.30;18.88;;;;;;;6.54;94.28;99968.38;4944290;28;102663;-61
2021/11/06 04:43:59;;;;;;;28.15;19.10;;;;;;;6.61;93.58;99969.84;4961063;28;103221;-61
2021/11/06 04:46:27;;;;;;;20.67;16.15;;;;;;;6.96;92.41;99969.44;4944657;28;103224;-61
2021/11/06 04:48:55;;;;;;;45.15;19.23;;;;;;;6.48;91.76;99968.59;4962764;28;102574;-61
2021/11/06 04:51:23;;;;;;;15.10;13.77;;;;;;;6.85;92.79;99963.69;4962044;28;104056;-61
2021/11/06 04:53:51;;;;;;;15.25;13.88;;;;;;;7.09;91.54;99972.44;4943218;28;104531;-61
2021/11/06 04:56:19;;;;;;;35.40;17.73;;;;;;;6.73;90.98;99972.91;4962211;28;103195;-61
2021/11/06 04:58:49;;;;;;;21.73;14.30;;;;;;;7.00;90.38;99978.88;4961548;28;102807;-61
2021/11/06 05:01:17;;;;;;;37.53;16.10;;;;;;;6.94;89.15;99984.38;4962690;28;102742;-61
2021/11/06 05:03:47;;;;;;;13.05;11.85;;;;;;;7.13;89.01;99974.88;4961958;28;104050;-61
2021/11/06 05:06:16;;;;;;;11.90;10.90;;;;;;;7.21;88.99;99985.13;4963541;28;103221;-61
2021/11/06 05:08:44;;;;;;;25.67;16.73;;;;;;;6.97;89.27;99979.88;4961320;28;102854;-61
2021/11/06 05:11:12;;;;;;;13.70;12.50;;;;;;;7.24;89.48;99980.56;4962463;28;104192;-61
2021/11/06 05:13:40;;;;;;;18.67;16.40;;;;;;;7.06;88.26;99986.53;4961321;28;104202;-61
2021/11/06 05:16:09;;;;;;;16.55;15.00;;;;;;;6.79;90.75;99979.69;4957741;28;105550;-61
2021/11/06 05:18:38;;;;;;;16.00;14.52;;;;;;;6.84;90.53;99980.38;4944349;28;102705;-61
2021/11/06 05:21:06;;;;;;;16.20;14.70;;;;;;;6.91;89.79;99985.34;4955463;28;102796;-60
2021/11/06 05:23:34;;;;;;;15.23;13.82;;;;;;;6.85;90.42;99984.69;4940624;28;104108;-60
2021/11/06 05:26:02;;;;;;;14.32;13.13;;;;;;;6.94;89.67;99982.59;4957633;28;103175;-60
2021/11/06 05:28:30;;;;;;;17.95;16.10;;;;;;;6.61;89.38;99986.47;4959095;28;103927;-60
2021/11/06 05:30:58;;;;;;;43.65;16.25;;;;;;;6.42;90.55;99985.41;4940952;28;102848;-60
2021/11/06 05:33:27;;;;;;;51.25;16.48;;;;;;;6.37;91.06;99990.81;4958060;28;103492;-60
2021/11/06 05:35:56;;;;;;;88.93;15.87;;;;;;;6.46;89.61;99983.56;4940349;28;103249;-61
2021/11/06 05:38:24;;;;;;;134.75;18.35;;;;;;;6.05;91.18;99990.22;4973600;28;103014;-62
2021/11/06 05:40:52;;;;;;;46.40;15.38;;;;;;;6.41;91.25;99987.19;4959069;28;102821;-61
2021/11/06 05:43:20;;;;;;;94.53;16.30;;;;;;;6.50;90.02;99998.28;4959093;28;103991;-62
2021/11/06 05:45:48;;;;;;;12.73;11.63;;;;;;;6.40;90.97;99998.59;4957346;28;103522;-61
2021/11/06 05:48:17;;;;;;;51.65;17.40;;;;;;;6.29;90.97;99994.63;4941095;28;102844;-61
2021/11/06 05:50:46;;;;;;;50.58;15.15;;;;;;;6.31;90.24;99993.69;4959780;28;103855;-61
2021/11/06 05:53:14;;;;;;;52.30;17.88;;;;;;;5.95;91.89;99992.28;4958067;28;104396;-63
2021/11/06 05:55:43;;;;;;;28.75;16.38;;;;;;;6.14;91.67;99998.66;4957166;28;103372;-63
2021/11/06 05:58:11;;;;;;;22.07;15.43;;;;;;;6.15;92.22;99992.47;4940608;28;103147;-64
2021/11/06 06:00:40;;;;;;;66.30;18.40;;;;;;;5.93;92.34;99993.22;4957458;28;103057;-62
2021/11/06 06:03:08;;;;;;;69.45;18.35;;;;;;;6.06;92.40;99998.06;4958121;28;103300;-62
2021/11/06 06:05:36;;;;;;;90.40;18.50;;;;;;;6.05;93.00;99995.47;4957678;28;103627;-61
2021/11/06 06:08:06;;;;;;;64.95;16.45;;;;;;;6.16;91.43;99996.81;4958314;28;102719;-61
2021/11/06 06:10:35;;;;;;;14.80;13.30;;;;;;;6.50;90.72;99996.50;4953408;28;102805;-62
2021/11/06 06:13:03;;;;;;;15.43;13.93;;;;;;;6.52;89.44;99999.06;4956886;28;104373;-62
2021/11/06 06:15:31;;;;;;;15.73;14.15;;;;;;;6.26;91.11;99995.56;4957215;28;103663;-62
2021/11/06 06:17:59;;;;;;;17.23;15.43;;;;;;;6.26;90.80;100000.81;4957078;28;102811;-61
2021/11/06 06:20:28;;;;;;;23.27;15.48;;;;;;;6.25;90.96;100001.75;4955900;28;102667;-61
2021/11/06 06:22:56;;;;;;;28.43;17.50;;;;;;;6.22;91.13;100007.09;4940332;28;103424;-61
2021/11/06 06:25:25;;;;;;;61.78;18.65;;;;;;;5.99;91.57;100012.25;4938470;28;104836;-61
2021/11/06 06:27:54;;;;;;;16.63;14.93;;;;;;;6.27;91.49;100022.69;4957335;28;102936;-61
2021/11/06 06:30:24;;;;;;;17.63;15.43;;;;;;;6.28;91.04;100014.78;4939798;28;103096;-61
2021/11/06 06:32:52;;;;;;;14.85;13.45;;;;;;;6.56;91.09;100021.69;4956405;28;103324;-61
2021/11/06 06:35:20;;;;;;;17.67;15.98;;;;;;;6.49;91.25;100022.78;4958420;28;103249;-61
2021/11/06 06:37:48;;;;;;;40.53;17.13;;;;;;;6.19;90.92;100027.34;4954837;28;102873;-61
2021/11/06 06:40:16;;;;;;;31.17;18.30;;;;;;;6.08;90.91;100030.34;4955420;28;102985;-61
2021/11/06 06:42:45;;;;;;;45.20;19.20;;;;;;;6.07;91.60;100025.13;4957898;28;104236;-61
2021/11/06 06:45:14;;;;;;;52.83;20.50;;;;;;;5.63;94.30;100034.41;4957890;28;102993;-61
2021/11/06 06:47:42;;;;;;;48.95;19.45;;;;;;;5.52;95.74;100041.75;4959534;28;102889;-61
2021/11/06 06:50:11;;;;;;;24.80;18.50;;;;;;;5.99;94.52;100040.25;4958201;28;102690;-61
2021/11/06 06:52:40;;;;;;;51.60;20.25;;;;;;;5.33;95.91;100045.84;4955497;28;104560;-61
2021/11/06 06:55:09;;;;;;;45.20;21.13;;;;;;;5.17;97.29;100042.78;4954956;28;103186;-61
2021/11/06 06:57:37;;;;;;;19.40;16.92;;;;;;;5.69;96.81;100049.94;4958487;28;102691;-61
2021/11/06 07:00:09;;;;;;;21.80;18.20;;;;;;;5.63;94.14;100053.63;4955558;28;103073;-61
2021/11/06 07:02:37;;;;;;;15.63;13.70;;;;;;;5.99;93.45;100048.13;4939563;28;102932;-63
2021/11/06 07:05:06;;;;;;;17.45;15.48;;;;;;;5.76;93.98;100056.69;4955160;28;103263;-62
2021/11/06 07:07:34;;;;;;;22.65;16.50;;;;;;;5.76;93.05;100056.69;4956184;28;102853;-62
2021/11/06 07:10:04;;;;;;;22.93;17.30;;;;;;;5.81;93.37;100053.03;4958230;28;103792;-62
2021/11/06 07:12:33;;;;;;;40.85;19.98;;;;;;;5.33;94.28;100051.06;4954773;28;103983;-62
2021/11/06 07:15:05;;;;;;;25.17;16.85;;;;;;;5.75;95.15;100055.84;4957511;28;102965;-67
2021/11/06 07:17:36;;;;;;;33.08;17.08;;;;;;;6.00;92.79;100058.59;4952945;28;102980;-62
2021/11/06 07:20:06;;;;;;;30.93;18.40;;;;;;;5.92;93.04;100047.50;4938729;28;103664;-61
2021/11/06 07:22:35;;;;;;;17.00;15.18;;;;;;;6.20;92.40;100064.00;4956400;28;103294;-61
2021/11/06 07:25:04;;;;;;;19.70;17.50;;;;;;;6.24;91.37;100060.41;4957139;28;103172;-61
2021/11/06 07:27:32;;;;;;;33.37;18.80;;;;;;;5.71;93.85;100062.09;4957122;28;103853;-61
2021/11/06 07:30:03;;;;;;;38.50;21.10;;;;;;;5.67;94.27;100067.50;4956011;28;102723;-61
2021/11/06 07:32:31;;;;;;;61.85;20.95;;;;;;;5.62;94.84;100062.38;4954435;28;104380;-61
2021/11/06 07:35:01;;;;;;;53.22;20.45;;;;;;;5.44;96.34;100065.56;4956772;28;103325;-61
2021/11/06 07:37:32;;;;;;;36.50;19.48;;;;;;;5.66;96.57;100063.16;4954261;28;102637;-64
2021/11/06 07:40:02;;;;;;;24.52;17.73;;;;;;;6.21;94.77;100064.88;4956433;28;102696;-63
2021/11/06 07:42:30;;;;;;;41.20;19.30;;;;;;;6.02;93.62;100059.41;4955634;28;103425;-62
2021/11/06 07:44:59;;;;;;;53.30;20.55;;;;;;;5.84;94.41;100070.44;4938637;28;103187;-63
2021/11/06 07:47:27;;;;;;;45.77;19.17;;;;;;;5.82;95.68;100062.63;4952195;28;102996;-63
2021/11/06 07:49:55;;;;;;;55.38;20.02;;;;;;;5.74;94.95;100080.38;4950105;28;102829;-62
2021/11/06 07:52:24;;;;;;;33.65;19.52;;;;;;;5.72;96.51;100086.56;4950047;28;103284;-63
2021/11/06 07:54:52;;;;;;;54.17;22.52;;;;;;;5.36;97.36;100083.25;4948654;28;103280;-63
2021/11/06 07:57:21;;;;;;;39.45;21.83;;;;;;;5.62;97.66;100079.88;4950304;28;103212;-63
2021/11/06 07:59:49;;;;;;;29.40;18.80;;;;;;;5.95;96.50;100073.59;4938316;28;104110;-63
2021/11/06 08:02:17;;;;;;;32.47;20.37;;;;;;;5.80;96.72;100085.44;4951004;28;103216;-63
2021/11/06 08:04:45;;;;;;;35.83;21.40;;;;;;;5.48;98.11;100082.03;4949291;28;103514;-62
2021/11/06 08:07:13;;;;;;;31.80;20.90;;;;;;;5.71;97.15;100084.84;4939137;28;103668;-62
2021/11/06 08:09:43;;;;;;;26.53;18.83;;;;;;;5.87;97.35;100085.28;4947777;28;102898;-63
2021/11/06 08:12:11;;;;;;;31.23;18.85;;;;;;;5.71;96.50;100090.09;4950953;28;103167;-63
2021/11/06 08:14:39;;;;;;;24.25;17.58;;;;;;;6.05;95.83;100088.16;4953616;28;103198;-63
2021/11/06 08:17:07;;;;;;;20.58;16.02;;;;;;;6.36;94.20;100078.38;4935376;28;102778;-62
2021/11/06 08:19:35;;;;;;;21.15;17.23;;;;;;;6.39;93.88;100075.66;4949081;28;102860;-63
2021/11/06 08:22:03;;;;;;;20.53;17.00;;;;;;;6.16;93.96;100078.16;4936099;28;103663;-62
2021/11/06 08:24:31;;;;;;;18.48;16.23;;;;;;;6.06;93.64;100082.00;4952608;28;103284;-61
2021/11/06 08:27:01;;;;;;;17.92;16.02;;;;;;;6.15;94.09;100080.81;4948788;28;102854;-62
2021/11/06 08:29:29;;;;;;;17.08;15.38;;;;;;;6.23;92.79;100098.03;4948231;28;102717;-61
2021/11/06 08:31:59;;;;;;;18.20;16.27;;;;;;;5.95;93.62;100093.75;4950883;28;104400;-63
2021/11/06 08:34:27;;;;;;;18.17;16.13;;;;;;;6.01;92.72;100098.78;4955017;28;103189;-63
2021/11/06 08:36:56;;;;;;;18.63;16.58;;;;;;;6.00;94.12;100097.94;4956999;28;102824;-62
2021/11/06 08:39:25;;;;;;;17.48;15.70;;;;;;;6.08;94.49;100098.56;4936149;28;103742;-61
2021/11/06 08:41:57;;;;;;;18.20;16.35;;;;;;;5.92;94.66;100099.97;4955217;28;103354;-62
2021/11/06 08:44:26;;;;;;;17.40;15.60;;;;;;;6.16;94.04;100093.06;4953637;28;103207;-62
2021/11/06 08:46:55;;;;;;;18.67;16.70;;;;;;;6.01;93.67;100097.03;4937408;28;102809;-62
2021/11/06 08:49:24;;;;;;;18.73;16.60;;;;;;;6.05;94.02;100101.28;4953266;28;102793;-62
2021/11/06 08:51:57;;;;;;;18.70;16.85;;;;;;;6.40;92.96;100097.47;4957688;28;103810;-62
2021/11/06 08:54:26;;;;;;;22.60;18.90;;;;;;;5.84;94.42;100107.16;4942108;28;103448;-62
2021/11/06 08:56:55;;;;;;;18.40;16.50;;;;;;;6.08;94.78;100111.69;4957228;28;102774;-62
2021/11/06 08:59:24;;;;;;;19.65;17.58;;;;;;;6.15;93.79;100113.19;4957744;28;102617;-62
2021/11/06 09:01:57;;;;;;;15.98;14.45;;;;;;;6.76;92.75;100108.53;4957749;28;103413;-62
2021/11/06 09:04:26;;;;;;;19.20;17.20;;;;;;;6.57;90.75;100104.81;4957239;28;103200;-62
2021/11/06 09:06:55;;;;;;;16.38;14.77;;;;;;;6.88;91.16;100113.31;4957393;28;102973;-61
2021/11/06 09:09:24;;;;;;;17.27;15.47;;;;;;;6.90;89.93;100114.16;4955258;28;102694;-62
2021/11/06 09:11:53;;;;;;;15.50;14.00;;;;;;;7.34;88.01;100109.91;4957033;28;103975;-62
2021/11/06 09:14:22;;;;;;;16.83;15.25;;;;;;;7.14;87.69;100108.00;4953214;28;103461;-62
2021/11/06 09:16:50;;;;;;;17.00;15.30;;;;;;;7.00;87.92;100113.78;4956846;28;102867;-62
2021/11/06 09:19:20;;;;;;;16.05;14.55;;;;;;;7.12;87.57;100109.84;4966581;28;103711;-62
2021/11/06 09:21:48;;;;;;;17.83;15.95;;;;;;;7.03;87.75;100104.91;4941600;28;103998;-61
2021/11/06 09:24:18;;;;;;;18.40;16.50;;;;;;;6.69;88.84;100112.25;4953095;28;104359;-62
2021/11/06 09:26:49;;;;;;;18.03;16.23;;;;;;;6.38;91.19;100107.19;4949945;28;103161;-62
2021/11/06 09:29:18;;;;;;;17.83;16.02;;;;;;;6.56;91.63;100105.72;4953713;28;104350;-62
2021/11/06 09:31:46;;;;;;;17.85;16.05;;;;;;;6.90;89.66;100108.91;4953112;28;103302;-61
2021/11/06 09:34:15;;;;;;;15.30;13.80;;;;;;;7.27;88.23;100106.63;4955406;28;103352;-62
2021/11/06 09:36:44;;;;;;;19.35;17.45;;;;;;;6.84;88.51;100114.38;4954192;28;102840;-63
2021/11/06 09:39:14;;;;;;;17.25;15.48;;;;;;;7.26;87.44;100109.34;4951461;28;103017;-62
2021/11/06 09:41:45;;;;;;;18.05;16.35;;;;;;;7.28;87.96;100111.00;4952501;28;104564;-61
2021/11/06 09:44:13;;;;;;;19.13;17.17;;;;;;;7.09;88.12;100109.09;4950176;28;103182;-61
2021/11/06 09:46:41;;;;;;;18.33;16.52;;;;;;;7.11;88.67;100107.25;4952228;28;102627;-63
2021/11/06 09:49:09;;;;;;;18.98;17.08;;;;;;;7.03;87.92;100102.28;4950597;28;102922;-63
2021/11/06 09:51:37;;;;;;;17.63;15.85;;;;;;;7.10;87.66;100111.69;4940801;28;104511;-62
2021/11/06 09:54:07;;;;;;;15.75;14.25;;;;;;;7.59;87.78;100100.19;4949498;28;103336;-61
2021/11/06 09:56:35;;;;;;;17.50;15.80;;;;;;;7.85;85.90;100099.19;4951038;28;102763;-61
2021/11/06 09:59:04;;;;;;;21.35;19.00;;;;;;;7.62;85.77;100104.47;4942839;28;102772;-61
2021/11/06 10:01:34;;;;;;;19.38;17.23;;;;;;;7.51;86.41;100100.50;4950251;28;104458;-61
2021/11/06 10:04:08;;;;;;;19.63;17.25;;;;;;;7.31;87.29;100105.63;4952380;28;103944;-61
2021/11/06 10:06:43;;;;;;;17.98;16.08;;;;;;;7.58;86.64;100107.22;4951113;28;102918;-63
2021/11/06 10:09:14;;;;;;;19.13;17.13;;;;;;;7.41;88.88;100106.16;4942337;28;102867;-63
2021/11/06 10:11:45;;;;;;;18.17;16.40;;;;;;;7.76;87.56;100107.44;4951717;28;103013;-63
2021/11/06 10:14:18;;;;;;;18.75;17.00;;;;;;;8.05;86.20;100109.78;4952282;28;102887;-61
2021/11/06 10:16:52;;;;;;;19.50;17.70;;;;;;;7.68;86.06;100104.25;4940925;28;102748;-61
2021/11/06 10:19:24;;;;;;;21.15;19.08;;;;;;;7.57;87.71;100104.66;4953024;28;103006;-63
2021/11/06 10:22:07;;;;;;;19.43;17.63;;;;;;;7.32;87.71;100104.72;4951579;28;103312;-61
2021/11/06 10:24:43;;;;;;;21.50;19.38;;;;;;;7.45;87.49;100103.34;4951123;28;103347;-62
2021/11/06 10:27:17;;;;;;;20.67;18.58;;;;;;;7.76;87.00;100102.16;4949307;28;103098;-61
2021/11/06 10:30:01;;;;;;;20.13;18.05;;;;;;;7.97;86.17;100093.44;4953112;28;104012;-63
2021/11/06 10:32:29;;;;;;;22.63;20.30;;;;;;;7.79;85.97;100096.78;4941760;28;103624;-61
2021/11/06 10:35:11;;;;;;;20.17;18.07;;;;;;;8.12;85.61;100090.19;4939397;28;103322;-61
2021/11/06 10:37:40;;;;;;;23.30;20.67;;;;;;;6.91;90.27;100097.47;4950684;28;102932;-63
2021/11/06 10:40:11;;;;;;;23.77;20.67;;;;;;;7.31;89.59;100089.84;4952568;28;102948;-63
2021/11/06 10:42:49;;;;;;;27.57;23.40;;;;;;;6.54;90.59;100083.91;4952328;28;103282;-61
2021/11/06 10:45:21;;;;;;;25.67;22.65;;;;;;;6.38;92.25;100081.78;4951122;28;103131;-61
2021/11/06 10:47:55;;;;;;;22.65;19.95;;;;;;;7.48;91.70;100086.59;4951023;28;102758;-61
2021/11/06 10:50:55;;;;;;;25.08;21.73;;;;;;;7.55;88.86;100077.56;4939487;28;102805;-61
2021/11/06 10:53:35;;;;;;;24.80;22.10;;;;;;;7.89;87.44;100074.44;4941145;28;103103;-61
2021/11/06 10:56:07;;;;;;;21.98;19.67;;;;;;;8.27;87.27;100067.63;4951564;28;103266;-61
2021/11/06 10:58:37;;;;;;;23.10;20.70;;;;;;;8.50;85.81;100063.16;4951810;28;103024;-61
2021/11/06 11:01:07;;;;;;;22.43;16.10;;;;;;;7.77;88.28;100067.06;4957021;28;103775;-63
2021/11/06 11:03:37;;;;;;;20.57;15.80;;;;;;;7.84;88.29;100060.63;4959048;28;103260;-64
2021/11/06 11:06:10;;;;;;;24.57;17.20;;;;;;;7.35;88.60;100067.81;4958340;28;103209;-63
2021/11/06 11:08:42;;;;;;;18.40;14.47;;;;;;;7.64;90.16;100053.50;4952115;28;102714;-62
2021/11/06 11:11:13;;;;;;;19.53;16.17;;;;;;;7.54;90.67;100050.41;4942092;28;104281;-63
2021/11/06 11:13:49;;;;;;;24.63;18.53;;;;;;;7.78;88.84;100048.56;4954251;28;103275;-63
2021/11/06 11:16:18;;;;;;;21.90;16.93;;;;;;;7.88;87.52;100044.66;4950709;28;103236;-62
2021/11/06 11:18:48;;;;;;;21.47;18.30;;;;;;;7.61;88.72;100032.59;4950157;28;102661;-62
2021/11/06 11:21:20;;;;;;;23.60;18.83;;;;;;;7.83;88.01;100019.47;4951561;28;102931;-62